createdAt,value
2022-08-28T00:01:08.268Z,6.18
2022-08-28T00:03:54.725Z,6.22
2022-08-28T00:06:34.867Z,6.55
2022-08-28T00:09:21.696Z,65.43
2022-08-28T00:12:08.742Z,14.15
2022-08-28T00:14:49.110Z,9.82
2022-08-28T00:17:35.738Z,12.00
2022-08-28T00:20:25.693Z,11.00
2022-08-28T00:23:05.992Z,8.10
2022-08-28T00:25:52.708Z,7.90
2022-08-28T00:28:33.118Z,9.00
2022-08-28T00:31:19.725Z,8.25
2022-08-28T00:34:03.268Z,7.63
2022-08-28T00:36:49.715Z,7.22
2022-08-28T00:39:29.816Z,8.52
2022-08-28T00:42:16.668Z,7.05
2022-08-28T00:45:04.671Z,6.82
2022-08-28T00:47:45.842Z,7.75
2022-08-28T00:50:36.674Z,6.47
2022-08-28T00:53:27.145Z,8.07
2022-08-28T00:56:24.688Z,7.97
2022-08-28T00:59:15.676Z,7.32
2022-08-28T01:02:04.724Z,9.65
2022-08-28T01:04:45.697Z,9.85
2022-08-28T01:07:32.660Z,11.07
2022-08-28T01:10:18.248Z,11.00
2022-08-28T01:13:05.623Z,9.77
2022-08-28T01:15:47.003Z,8.95
2022-08-28T01:18:34.680Z,8.85
2022-08-28T01:21:27.119Z,6.80
2022-08-28T01:24:22.636Z,7.82
2022-08-28T01:27:09.647Z,7.60
2022-08-28T01:29:50.753Z,8.02
2022-08-28T01:32:42.640Z,6.95
2022-08-28T01:35:26.724Z,6.80
2022-08-28T01:38:17.619Z,7.78
2022-08-28T01:41:00.711Z,8.20
2022-08-28T01:43:48.648Z,7.32
2022-08-28T01:46:36.709Z,8.75
2022-08-28T01:49:17.659Z,8.07
2022-08-28T01:51:57.623Z,8.15
2022-08-28T01:54:37.735Z,7.30
2022-08-28T01:57:25.603Z,7.15
2022-08-28T02:00:12.583Z,7.35
2022-08-28T02:02:55.583Z,7.57
2022-08-28T02:05:45.588Z,7.80
2022-08-28T02:08:25.987Z,6.65
2022-08-28T02:11:12.592Z,7.22
2022-08-28T02:13:54.304Z,6.72
2022-08-28T02:16:43.605Z,7.03
2022-08-28T02:19:24.628Z,7.28
2022-08-28T02:22:14.604Z,7.82
2022-08-28T02:24:55.026Z,6.80
2022-08-28T02:27:41.583Z,7.15
2022-08-28T02:30:22.097Z,8.32
2022-08-28T02:33:08.553Z,6.30
2022-08-28T02:36:02.620Z,7.53
2022-08-28T02:38:56.854Z,7.43
2022-08-28T02:41:44.554Z,7.13
2022-08-28T02:44:24.977Z,6.10
2022-08-28T02:47:11.566Z,8.38
2022-08-28T02:49:58.547Z,10.40
2022-08-28T02:52:45.545Z,15.38
2022-08-28T02:55:26.154Z,16.88
2022-08-28T02:58:13.626Z,17.58
2022-08-28T03:01:01.551Z,23.02
2022-08-28T03:03:48.548Z,23.55
2022-08-28T03:26:42.564Z,11.40
2022-08-28T03:29:23.473Z,13.07
2022-08-28T03:32:10.564Z,11.02
2022-08-28T03:34:50.957Z,10.05
2022-08-28T03:37:38.533Z,13.02
2022-08-28T03:40:19.939Z,13.95
2022-08-28T03:43:06.938Z,13.75
2022-08-28T03:46:09.563Z,15.18
2022-08-28T03:48:50.751Z,14.73
2022-08-28T03:51:40.550Z,15.68
2022-08-28T03:54:27.551Z,14.60
2022-08-28T03:57:07.985Z,14.95
2022-08-28T03:59:54.555Z,14.35
2022-08-28T04:02:34.990Z,14.07
2022-08-28T04:05:24.995Z,14.00
2022-08-28T04:08:11.761Z,14.70
2022-08-28T04:10:59.549Z,13.85
2022-08-28T04:13:48.554Z,12.02
2022-08-28T04:16:35.569Z,10.63
2022-08-28T04:19:15.923Z,12.15
2022-08-28T04:22:02.509Z,14.95
2022-08-28T04:24:49.533Z,15.52
2022-08-28T04:27:36.526Z,14.70
2022-08-28T04:30:24.513Z,15.65
2022-08-28T04:33:06.209Z,16.25
2022-08-28T04:35:53.529Z,15.68
2022-08-28T04:38:33.635Z,16.67
2022-08-28T04:41:22.527Z,16.02
2022-08-28T04:44:03.588Z,16.92
2022-08-28T04:46:50.498Z,27.13
2022-08-28T04:49:30.620Z,38.67
2022-08-28T04:52:18.472Z,46.65
2022-08-28T04:54:58.605Z,61.47
2022-08-28T04:57:45.496Z,90.28
2022-08-28T05:00:25.600Z,101.80
2022-08-28T05:03:12.462Z,99.82
2022-08-28T05:05:55.620Z,95.40
2022-08-28T05:08:42.470Z,91.47
2022-08-28T05:11:33.631Z,90.72
2022-08-28T05:14:22.506Z,81.85
2022-08-28T05:17:02.574Z,74.75
2022-08-28T05:19:50.456Z,69.60
2022-08-28T05:22:37.508Z,61.10
2022-08-28T05:25:31.465Z,57.25
2022-08-28T05:28:12.877Z,61.15
2022-08-28T05:30:59.454Z,55.80
2022-08-28T05:33:46.440Z,52.85
2022-08-28T05:36:32.579Z,50.85
2022-08-28T05:39:20.477Z,51.90
2022-08-28T05:42:00.570Z,46.28
2022-08-28T05:44:47.456Z,37.72
2022-08-28T05:47:34.615Z,37.53
2022-08-28T05:50:21.436Z,38.85
2022-08-28T05:53:01.591Z,38.13
2022-08-28T05:55:51.767Z,34.90
2022-08-28T05:58:39.422Z,32.95
2022-08-28T06:01:30.465Z,32.38
2022-08-28T06:04:40.471Z,31.00
2022-08-28T06:07:27.502Z,31.63
2022-08-28T06:10:07.466Z,31.25
2022-08-28T06:12:50.804Z,28.40
2022-08-28T06:15:37.388Z,27.30
2022-08-28T06:18:17.911Z,26.20
2022-08-28T06:21:04.383Z,24.33
2022-08-28T06:23:51.407Z,21.25
2022-08-28T06:26:45.403Z,20.77
2022-08-28T06:32:15.463Z,16.60
2022-08-28T06:34:55.761Z,15.60
2022-08-28T06:37:42.410Z,17.27
2022-08-28T06:40:29.414Z,17.20
2022-08-28T06:43:16.388Z,21.50
2022-08-28T06:45:58.090Z,23.38
2022-08-28T06:48:45.405Z,19.75
2022-08-28T06:51:25.787Z,16.98
2022-08-28T06:54:12.384Z,17.25
2022-08-28T06:56:52.980Z,18.10
2022-08-28T06:59:39.379Z,15.27
2022-08-28T07:02:19.877Z,16.92
2022-08-28T07:05:07.383Z,14.40
2022-08-28T07:07:54.345Z,16.92
2022-08-28T07:10:37.492Z,18.35
2022-08-28T07:13:24.387Z,20.92
2022-08-28T07:16:04.521Z,20.80
2022-08-28T07:18:52.339Z,20.92
2022-08-28T07:21:40.337Z,18.70
2022-08-28T07:24:21.061Z,16.42
2022-08-28T07:27:09.332Z,15.60
2022-08-28T07:29:56.365Z,14.43
2022-08-28T07:32:36.466Z,13.77
2022-08-28T07:35:25.344Z,14.60
2022-08-28T07:38:12.539Z,13.02
2022-08-28T07:40:54.046Z,11.23
2022-08-28T07:43:59.297Z,12.32
2022-08-28T07:46:47.310Z,10.63
2022-08-28T07:49:27.507Z,11.55
2022-08-28T07:52:16.289Z,12.15
2022-08-28T07:54:56.523Z,11.85
2022-08-28T07:57:43.323Z,10.98
2022-08-28T08:00:23.425Z,11.23
2022-08-28T08:03:10.366Z,9.35
2022-08-28T08:06:09.319Z,10.98
2022-08-28T08:08:56.297Z,11.73
2022-08-28T08:11:43.325Z,12.30
2022-08-28T08:14:23.753Z,10.23
2022-08-28T08:17:10.323Z,10.85
2022-08-28T08:19:50.729Z,9.93
2022-08-28T08:22:37.306Z,10.02
2022-08-28T08:25:17.895Z,9.77
2022-08-28T08:28:04.291Z,10.88
2022-08-28T08:30:51.317Z,11.50
2022-08-28T08:33:32.120Z,9.85
2022-08-28T08:36:21.286Z,9.63
2022-08-28T08:39:09.704Z,9.20
2022-08-28T08:41:55.489Z,12.07
2022-08-28T08:44:48.281Z,10.75
2022-08-28T08:47:54.298Z,11.02
2022-08-28T08:50:38.787Z,10.60
2022-08-28T08:53:37.257Z,10.55
2022-08-28T08:56:23.961Z,9.05
2022-08-28T08:59:26.247Z,11.70
2022-08-28T09:02:19.313Z,10.80
2022-08-28T09:05:18.277Z,9.27
2022-08-28T09:08:12.419Z,8.93
2022-08-28T09:11:01.758Z,10.23
2022-08-28T09:14:01.293Z,9.52
2022-08-28T09:16:51.364Z,9.73
2022-08-28T09:19:31.273Z,9.02
2022-08-28T09:22:12.030Z,8.73
2022-08-28T09:24:59.174Z,9.30
2022-08-28T09:27:47.770Z,8.55
2022-08-28T09:30:44.238Z,8.80
2022-08-28T09:33:41.898Z,8.68
2022-08-28T09:36:40.333Z,9.05
2022-08-28T09:39:39.193Z,8.90
2022-08-28T09:42:54.230Z,6.57
2022-08-28T09:45:34.682Z,7.18
2022-08-28T09:48:34.229Z,8.55
2022-08-28T09:51:29.597Z,8.93
2022-08-28T09:54:25.206Z,8.77
2022-08-28T09:57:05.724Z,9.13
2022-08-28T09:59:52.218Z,9.10
2022-08-28T10:02:50.979Z,9.35
2022-08-28T10:05:57.224Z,10.93
2022-08-28T10:08:53.218Z,12.27
2022-08-28T10:11:57.207Z,12.20
2022-08-28T10:14:49.152Z,11.50
2022-08-28T10:18:00.187Z,10.30
2022-08-28T10:21:10.193Z,7.85
2022-08-28T10:24:00.143Z,9.95
2022-08-28T10:27:28.170Z,7.15
2022-08-28T10:30:14.971Z,8.02
2022-08-28T10:33:44.166Z,9.32
2022-08-28T10:36:37.186Z,9.07
2022-08-28T10:39:39.165Z,7.72
2022-08-28T10:42:36.299Z,7.13
2022-08-28T10:45:31.414Z,6.82
2022-08-28T10:48:27.137Z,7.65
2022-08-28T10:51:19.171Z,6.72
2022-08-28T10:54:45.138Z,6.82
2022-08-28T10:57:59.123Z,6.88
2022-08-28T11:03:37.114Z,7.13
2022-08-28T11:06:31.118Z,6.80
2022-08-28T11:09:34.138Z,7.90
2022-08-28T11:12:25.147Z,8.15
2022-08-28T11:15:05.234Z,6.63
2022-08-28T11:17:52.145Z,8.43
2022-08-28T11:20:36.300Z,8.55
2022-08-28T11:23:29.137Z,9.07
2022-08-28T11:26:21.107Z,8.77
2022-08-28T11:29:03.306Z,7.82
2022-08-28T11:31:53.121Z,7.78
2022-08-28T11:35:00.579Z,8.95
2022-08-28T11:37:48.141Z,8.48
2022-08-28T11:40:58.133Z,6.90
2022-08-28T11:43:40.762Z,7.07
2022-08-28T11:46:30.174Z,7.82
2022-08-28T11:49:39.122Z,8.50
2022-08-28T11:52:41.116Z,7.53
2022-08-28T11:55:50.460Z,8.20
2022-08-28T11:58:46.076Z,6.72
2022-08-28T12:01:35.536Z,6.93
2022-08-28T12:04:26.298Z,7.50
2022-08-28T12:07:19.084Z,7.10
2022-08-28T12:10:06.085Z,7.63
2022-08-28T12:12:46.421Z,6.43
2022-08-28T12:15:42.154Z,8.02
2022-08-28T12:18:51.507Z,6.47
2022-08-28T12:21:42.098Z,8.40
2022-08-28T12:24:31.075Z,7.30
2022-08-28T12:27:21.066Z,8.40
2022-08-28T12:30:09.043Z,7.82
2022-08-28T12:32:56.042Z,8.85
2022-08-28T12:35:36.808Z,7.55
2022-08-28T12:38:34.055Z,8.45
2022-08-28T12:41:17.224Z,8.45
2022-08-28T12:44:16.039Z,7.63
2022-08-28T12:46:57.291Z,8.02
2022-08-28T12:49:49.037Z,7.45
2022-08-28T12:52:36.052Z,7.75
2022-08-28T12:55:16.164Z,7.60
2022-08-28T12:58:03.049Z,8.13
2022-08-28T13:00:50.098Z,7.85
2022-08-28T13:03:30.748Z,8.48
2022-08-28T13:06:20.999Z,7.15
2022-08-28T13:09:12.028Z,7.40
2022-08-28T13:12:01.995Z,8.40
2022-08-28T13:14:53.026Z,6.93
2022-08-28T13:18:10.012Z,9.15
2022-08-28T13:20:57.061Z,7.57
2022-08-28T13:23:37.003Z,7.65
2022-08-28T13:26:24.995Z,8.93
2022-08-28T13:29:21.898Z,8.48
2022-08-28T13:32:29.984Z,9.23
2022-08-28T13:35:40.017Z,9.20
2022-08-28T13:38:23.096Z,9.15
2022-08-28T13:41:12.026Z,10.52
2022-08-28T13:44:00.057Z,9.75
2022-08-28T13:46:40.384Z,10.27
2022-08-28T13:49:27.005Z,11.40
2022-08-28T13:52:14.993Z,10.25
2022-08-28T13:54:55.486Z,11.10
2022-08-28T13:57:41.955Z,10.77
2022-08-28T14:00:23.111Z,10.57
2022-08-28T14:03:28.979Z,10.52
2022-08-28T14:06:31.873Z,11.80
2022-08-28T14:09:15.278Z,9.55
2022-08-28T14:12:04.981Z,10.43
2022-08-28T14:14:51.967Z,11.82
2022-08-28T14:17:32.055Z,10.55
2022-08-28T14:20:20.957Z,11.85
2022-08-28T14:23:08.002Z,10.48
2022-08-28T14:26:04.997Z,11.57
2022-08-28T14:28:51.976Z,10.90
2022-08-28T14:31:36.018Z,9.30
2022-08-28T14:34:28.943Z,10.68
2022-08-28T14:37:09.041Z,9.63
2022-08-28T14:39:56.981Z,10.65
2022-08-28T14:42:37.053Z,12.85
2022-08-28T14:45:23.929Z,11.45
2022-08-28T14:48:04.000Z,11.52
2022-08-28T14:50:54.938Z,12.75
2022-08-28T14:53:41.925Z,12.70
2022-08-28T14:56:29.223Z,10.90
2022-08-28T14:59:18.427Z,11.73
2022-08-28T15:02:02.218Z,11.18
2022-08-28T15:04:48.924Z,10.80
2022-08-28T15:07:35.922Z,12.38
2022-08-28T15:10:17.199Z,12.23
2022-08-28T15:28:38.032Z,13.13
2022-08-28T15:31:25.171Z,13.65
2022-08-28T15:34:16.052Z,13.32
2022-08-28T15:36:58.350Z,13.27
2022-08-28T15:40:04.159Z,12.43
2022-08-28T15:42:45.455Z,11.82
2022-08-28T15:45:33.101Z,12.32
2022-08-28T15:48:13.518Z,13.50
2022-08-28T15:51:00.108Z,11.57
2022-08-28T15:53:40.431Z,12.18
2022-08-28T15:56:28.037Z,11.80
2022-08-28T15:59:10.707Z,11.68
2022-08-28T16:01:58.121Z,10.93
2022-08-28T16:04:38.504Z,11.30
2022-08-28T16:07:25.045Z,12.00
2022-08-28T16:10:17.707Z,10.93
2022-08-28T16:12:57.666Z,11.18
2022-08-28T16:15:45.007Z,10.15
2022-08-28T16:18:25.121Z,10.85
2022-08-28T16:21:11.980Z,9.50
2022-08-28T16:23:59.055Z,9.70
2022-08-28T16:26:52.972Z,10.77
2022-08-28T16:29:40.008Z,11.20
2022-08-28T16:32:20.061Z,11.60
2022-08-28T16:35:09.979Z,10.52
2022-08-28T16:37:56.989Z,9.80
2022-08-28T16:40:44.095Z,11.57
2022-08-28T16:43:23.999Z,11.63
2022-08-28T16:46:09.545Z,10.70
2022-08-28T16:48:56.972Z,9.55
2022-08-28T16:51:44.949Z,10.13
2022-08-28T16:54:32.953Z,10.50
2022-08-28T16:57:13.350Z,9.18
2022-08-28T17:00:00.941Z,10.90
2022-08-28T17:02:42.606Z,9.00
2022-08-28T17:05:31.942Z,8.93
2022-08-28T17:08:18.962Z,8.68
2022-08-28T17:11:05.935Z,8.80
2022-08-28T17:13:48.648Z,8.90
2022-08-28T17:16:40.944Z,8.20
2022-08-28T17:19:23.290Z,8.75
2022-08-28T17:22:27.916Z,8.38
2022-08-28T17:25:13.714Z,8.27
2022-08-28T17:28:00.934Z,7.78
2022-08-28T17:30:41.384Z,8.85
2022-08-28T17:33:27.902Z,9.30
2022-08-28T17:36:15.305Z,8.68
2022-08-28T17:39:13.904Z,9.05
2022-08-28T17:41:54.391Z,10.68
2022-08-28T17:44:41.920Z,8.43
2022-08-28T17:47:27.457Z,9.40
2022-08-28T17:53:06.065Z,9.52
2022-08-28T17:55:45.922Z,8.57
2022-08-28T17:58:26.367Z,8.18
2022-08-28T18:01:12.967Z,8.38
2022-08-28T18:04:01.928Z,9.43
2022-08-28T18:06:42.073Z,9.25
2022-08-28T18:09:29.891Z,9.63
2022-08-28T18:12:12.452Z,8.55
2022-08-28T18:14:59.892Z,9.18
2022-08-28T18:17:40.154Z,8.63
2022-08-28T18:20:27.104Z,8.38
2022-08-28T18:23:07.163Z,9.15
2022-08-28T18:25:55.029Z,9.15
2022-08-28T18:28:42.267Z,8.10
2022-08-28T18:31:22.063Z,8.80
2022-08-28T18:34:02.568Z,7.75
2022-08-28T18:36:49.078Z,8.65
2022-08-28T18:39:30.122Z,7.85
2022-08-28T18:42:17.048Z,8.30
2022-08-28T18:44:57.489Z,8.30
2022-08-28T18:47:44.090Z,7.68
2022-08-28T18:50:27.044Z,9.23
2022-08-28T18:53:14.069Z,8.00
2022-08-28T18:55:55.309Z,7.47
2022-08-28T18:58:42.953Z,7.78
2022-08-28T19:01:23.394Z,7.68
2022-08-28T19:04:09.818Z,9.02
2022-08-28T19:06:50.311Z,6.50
2022-08-28T19:09:36.832Z,8.15
2022-08-28T19:12:23.961Z,7.38
2022-08-28T19:15:04.815Z,7.88
2022-08-28T19:17:45.664Z,7.55
2022-08-28T19:20:39.847Z,6.78
2022-08-28T19:23:20.317Z,7.88
2022-08-28T19:26:06.854Z,7.65
2022-08-28T19:29:00.832Z,7.63
2022-08-28T19:31:43.813Z,8.02
2022-08-28T19:34:31.842Z,7.27
2022-08-28T19:37:12.209Z,7.88
2022-08-28T19:39:58.862Z,7.80
2022-08-28T19:42:45.769Z,7.38
2022-08-28T19:45:32.834Z,7.75
2022-08-28T19:48:13.429Z,6.90
2022-08-28T19:51:01.017Z,7.50
2022-08-28T19:53:41.350Z,7.82
2022-08-28T19:56:31.878Z,9.20
2022-08-28T19:59:18.899Z,7.65
2022-08-28T20:01:58.888Z,7.75
2022-08-28T20:04:45.820Z,8.57
2022-08-28T20:07:26.004Z,7.95
2022-08-28T20:10:13.811Z,8.30
2022-08-28T20:13:00.822Z,8.32
2022-08-28T20:15:45.938Z,7.10
2022-08-28T20:18:33.764Z,7.20
2022-08-28T20:21:14.475Z,7.20
2022-08-28T20:24:01.796Z,8.02
2022-08-28T20:26:56.724Z,8.40
2022-08-28T20:29:43.796Z,9.55
2022-08-28T20:32:23.890Z,8.35
2022-08-28T20:35:13.729Z,6.43
2022-08-28T20:38:00.735Z,7.80
2022-08-28T20:40:47.814Z,7.38
2022-08-28T20:43:28.710Z,8.82
2022-08-28T20:46:16.756Z,7.80
2022-08-28T20:48:56.820Z,7.47
2022-08-28T20:52:02.764Z,6.43
2022-08-28T20:54:46.078Z,6.75
2022-08-28T20:57:34.752Z,5.65
2022-08-28T21:00:16.841Z,6.88
2022-08-28T21:03:03.720Z,7.05
2022-08-28T21:05:50.713Z,7.57
2022-08-28T21:08:37.939Z,5.95
2022-08-28T21:11:17.745Z,7.45
2022-08-28T21:14:04.728Z,5.60
2022-08-28T21:16:52.748Z,5.40
2022-08-28T21:19:36.194Z,5.63
2022-08-28T21:22:26.726Z,6.03
2022-08-28T21:25:10.306Z,10.15
2022-08-28T21:27:57.680Z,5.07
2022-08-28T21:30:41.622Z,5.72
2022-08-28T21:33:28.685Z,6.18
2022-08-28T21:36:17.707Z,6.40
2022-08-28T21:38:58.411Z,5.82
2022-08-28T21:41:45.715Z,6.10
2022-08-28T21:44:25.781Z,5.78
2022-08-28T21:47:12.732Z,5.95
2022-08-28T21:49:54.801Z,8.57
2022-08-28T21:52:42.639Z,10.60
2022-08-28T21:55:29.702Z,8.75
2022-08-28T21:58:16.697Z,6.32
2022-08-28T22:00:59.810Z,6.45
2022-08-28T22:03:50.679Z,7.85
2022-08-28T22:06:31.962Z,6.50
2022-08-28T22:09:18.663Z,5.63
2022-08-28T22:11:58.749Z,5.07
2022-08-28T22:14:45.658Z,5.70
2022-08-28T22:17:26.218Z,7.13
2022-08-28T22:20:12.684Z,5.88
2022-08-28T22:23:13.817Z,7.95
2022-08-28T22:26:00.646Z,5.70
2022-08-28T22:28:47.721Z,6.20
2022-08-28T22:31:27.659Z,5.82
2022-08-28T22:34:09.015Z,6.28
2022-08-28T22:36:55.643Z,6.45
2022-08-28T22:39:42.783Z,4.82
2022-08-28T22:42:22.631Z,5.05
2022-08-28T22:45:03.150Z,5.47
2022-08-28T22:47:49.663Z,4.57
2022-08-28T22:50:30.070Z,5.47
2022-08-28T22:53:16.615Z,4.97
2022-08-28T22:55:57.447Z,5.05
2022-08-28T22:58:46.596Z,4.65
2022-08-28T23:01:33.702Z,5.22
2022-08-28T23:04:13.692Z,4.00
2022-08-28T23:06:54.063Z,4.38
2022-08-28T23:09:40.600Z,4.43
2022-08-28T23:12:21.091Z,4.97
2022-08-28T23:15:07.568Z,4.72
2022-08-28T23:17:48.817Z,5.03
2022-08-28T23:20:35.581Z,4.38
2022-08-28T23:23:16.145Z,4.75
2022-08-28T23:26:02.610Z,4.18
2022-08-28T23:28:43.358Z,5.13
2022-08-28T23:31:30.553Z,5.18
2022-08-28T23:34:18.584Z,4.50
2022-08-28T23:37:05.534Z,4.45
2022-08-28T23:39:46.008Z,5.35
2022-08-28T23:42:34.572Z,5.13
2022-08-28T23:45:23.562Z,4.55
2022-08-28T23:48:03.712Z,4.43
2022-08-28T23:50:51.535Z,5.07
2022-08-28T23:53:31.687Z,4.68
2022-08-28T23:59:12.028Z,4.53
